createdAt,value
2022-09-01T00:00:01.058Z,67.55
2022-09-01T00:07:11.178Z,67.54
2022-09-01T00:10:37.653Z,67.92
2022-09-01T00:14:30.028Z,67.67
2022-09-01T00:17:57.478Z,68.11
2022-09-01T00:20:31.149Z,68.07
2022-09-01T00:27:41.680Z,68.27
2022-09-01T02:29:42.274Z,71.33
2022-09-01T02:32:19.412Z,71.13
2022-09-01T02:34:54.752Z,71.37
2022-09-01T02:37:25.597Z,71.20
2022-09-01T02:39:53.505Z,71.51
2022-09-01T02:42:27.697Z,71.12
2022-09-01T02:44:55.440Z,71.36
2022-09-01T02:47:23.707Z,71.62
2022-09-01T02:49:51.576Z,71.63
2022-09-01T02:52:20.962Z,71.61
2022-09-01T02:54:50.068Z,71.67
2022-09-01T02:57:17.562Z,71.49
2022-09-01T02:59:44.510Z,71.50
2022-09-01T03:02:11.326Z,71.77
2022-09-01T03:04:39.050Z,71.45
2022-09-01T03:07:06.853Z,71.67
2022-09-01T03:09:35.508Z,71.84
2022-09-01T03:12:07.579Z,71.55
2022-09-01T03:14:34.357Z,71.87
2022-09-01T03:17:01.157Z,71.78
2022-09-01T03:19:37.110Z,71.73
2022-09-01T03:22:04.377Z,71.67
2022-09-01T03:24:31.080Z,71.35
2022-09-01T03:27:04.166Z,71.40
2022-09-01T03:29:30.946Z,71.29
2022-09-01T03:31:57.667Z,71.07
2022-09-01T03:34:24.651Z,71.35
2022-09-01T03:36:52.505Z,70.78
2022-09-01T03:39:19.529Z,71.23
2022-09-01T03:41:46.563Z,70.83
2022-09-01T03:44:16.404Z,70.76
2022-09-01T03:46:44.365Z,70.99
2022-09-01T03:49:17.233Z,70.96
2022-09-01T03:51:45.172Z,70.58
2022-09-01T03:54:12.848Z,70.66
2022-09-01T03:56:42.359Z,70.40
2022-09-01T03:59:17.390Z,70.73
2022-09-01T04:01:52.494Z,70.51
2022-09-01T04:04:19.377Z,70.85
2022-09-01T04:06:47.199Z,70.98
2022-09-01T04:09:14.208Z,70.48
2022-09-01T04:11:45.871Z,70.40
2022-09-01T04:14:13.782Z,70.54
2022-09-01T04:17:06.161Z,70.80
2022-09-01T04:19:37.010Z,70.56
2022-09-01T04:22:05.085Z,71.15
2022-09-01T04:24:44.455Z,70.99
2022-09-01T04:27:12.371Z,70.91
2022-09-01T04:30:01.144Z,71.07
2022-09-01T04:32:28.644Z,71.40
2022-09-01T04:34:57.289Z,71.50
2022-09-01T04:37:24.125Z,71.41
2022-09-01T04:39:57.159Z,71.24
2022-09-01T04:42:27.451Z,71.63
2022-09-01T04:44:56.737Z,71.51
2022-09-01T04:47:30.442Z,71.85
2022-09-01T04:50:04.439Z,71.38
2022-09-01T04:52:39.328Z,71.88
2022-09-01T04:55:08.917Z,71.50
2022-09-01T04:57:36.538Z,71.68
2022-09-01T05:00:11.069Z,72.05
2022-09-01T05:02:39.750Z,71.79
2022-09-01T05:05:13.229Z,71.86
2022-09-01T05:07:40.040Z,72.04
2022-09-01T05:10:07.134Z,72.19
2022-09-01T05:12:33.925Z,72.03
2022-09-01T05:15:04.237Z,72.48
2022-09-01T05:17:31.126Z,72.23
2022-09-01T05:19:58.201Z,72.37
2022-09-01T05:22:32.160Z,72.74
2022-09-01T05:25:05.360Z,72.68
2022-09-01T05:27:32.525Z,72.57
2022-09-01T05:30:08.183Z,72.85
2022-09-01T05:32:37.390Z,72.40
2022-09-01T05:35:15.184Z,72.52
2022-09-01T05:37:42.879Z,72.40
2022-09-01T05:40:23.243Z,72.28
2022-09-01T05:42:50.099Z,72.52
2022-09-01T05:45:20.544Z,72.69
2022-09-01T05:47:48.857Z,72.71
2022-09-01T05:50:16.634Z,72.44
2022-09-01T05:52:45.727Z,72.50
2022-09-01T05:55:23.595Z,72.82
2022-09-01T05:57:54.054Z,72.92
2022-09-01T06:00:28.319Z,72.95
2022-09-01T06:02:58.171Z,73.00
2022-09-01T06:06:25.005Z,72.67
2022-09-01T06:13:22.155Z,72.68
2022-09-01T06:16:54.033Z,72.65
2022-09-01T06:24:21.086Z,72.50
2022-09-01T06:27:47.602Z,72.79
2022-09-01T06:31:30.973Z,72.69
2022-09-01T06:35:11.126Z,72.65
2022-09-01T06:38:40.373Z,72.64
2022-09-01T06:42:13.172Z,72.97
2022-09-01T06:45:39.760Z,72.86
2022-09-01T06:48:37.080Z,72.91
2022-09-01T06:52:03.616Z,73.03
2022-09-01T06:55:30.273Z,73.14
2022-09-01T06:58:58.818Z,73.12
2022-09-01T07:02:27.154Z,72.99
2022-09-01T07:13:17.122Z,73.09
2022-09-01T07:16:51.881Z,72.83
2022-09-01T09:35:34.817Z,60.99
2022-09-01T09:38:33.578Z,60.64
2022-09-01T09:41:19.846Z,60.04
2022-09-01T09:43:58.970Z,59.79
2022-09-01T09:46:43.694Z,59.64
2022-09-01T09:49:14.585Z,59.35
2022-09-01T09:51:44.982Z,58.94
2022-09-01T09:54:26.347Z,58.70
2022-09-01T09:57:23.276Z,58.15
2022-09-01T10:00:00.270Z,57.88
2022-09-01T10:02:36.262Z,57.50
2022-09-01T10:05:37.453Z,57.27
2022-09-01T10:08:07.504Z,56.93
2022-09-01T10:10:58.031Z,56.58
2022-09-01T10:13:27.573Z,56.38
2022-09-01T10:15:57.617Z,55.97
2022-09-01T10:18:30.163Z,55.57
2022-09-01T10:21:00.218Z,55.16
2022-09-01T10:23:31.325Z,55.07
2022-09-01T10:26:09.602Z,54.67
2022-09-01T10:29:07.203Z,54.69
2022-09-01T10:31:34.988Z,54.21
2022-09-01T10:34:05.468Z,53.95
2022-09-01T10:36:34.926Z,53.62
2022-09-01T10:39:06.136Z,53.27
2022-09-01T10:41:59.911Z,53.12
2022-09-01T10:44:32.005Z,52.67
2022-09-01T10:47:02.470Z,52.62
2022-09-01T10:49:33.018Z,52.78
2022-09-01T10:52:07.404Z,52.57
2022-09-01T10:54:51.143Z,52.40
2022-09-01T10:57:27.664Z,52.04
2022-09-01T10:59:58.578Z,51.77
2022-09-01T11:02:27.539Z,51.20
2022-09-01T11:04:54.626Z,51.11
2022-09-01T11:07:50.500Z,50.62
2022-09-01T11:10:36.076Z,50.35
2022-09-01T11:13:24.447Z,50.28
2022-09-01T11:15:51.610Z,49.94
2022-09-01T11:18:27.493Z,49.77
2022-09-01T11:20:56.300Z,49.09
2022-09-01T11:23:28.027Z,48.62
2022-09-01T11:26:20.484Z,48.09
2022-09-01T11:28:47.777Z,47.35
2022-09-01T11:31:16.908Z,46.71
2022-09-01T11:34:10.591Z,46.12
2022-09-01T11:36:48.642Z,45.24
2022-09-01T11:39:19.346Z,44.82
2022-09-01T11:42:14.734Z,44.26
2022-09-01T11:45:01.004Z,44.10
2022-09-01T11:47:41.488Z,43.85
2022-09-01T11:50:24.355Z,43.46
2022-09-01T11:53:04.644Z,43.07
2022-09-01T11:55:36.991Z,42.03
2022-09-01T11:58:05.243Z,41.42
2022-09-01T12:00:38.624Z,41.06
2022-09-01T12:03:20.175Z,40.77
2022-09-01T12:05:52.547Z,40.32
2022-09-01T12:08:22.976Z,39.65
2022-09-01T12:10:51.485Z,39.27
2022-09-01T12:13:23.806Z,38.67
2022-09-01T12:16:16.857Z,38.64
2022-09-01T12:18:51.840Z,38.51
2022-09-01T12:21:29.561Z,37.95
2022-09-01T12:24:16.927Z,37.94
2022-09-01T12:26:44.929Z,37.14
2022-09-01T12:29:16.627Z,36.41
2022-09-01T12:31:45.654Z,36.02
2022-09-01T12:34:34.169Z,35.31
2022-09-01T12:37:19.530Z,34.68
2022-09-01T12:39:57.951Z,33.89
2022-09-01T12:42:27.317Z,33.20
2022-09-01T12:45:09.032Z,32.21
2022-09-01T12:47:36.271Z,32.55
2022-09-01T12:50:06.113Z,32.58
2022-09-01T12:52:44.772Z,32.77
2022-09-01T12:58:08.642Z,32.50
2022-09-01T13:01:00.285Z,32.75
2022-09-01T13:03:29.729Z,32.38
2022-09-01T13:06:02.040Z,31.48
2022-09-01T13:08:33.307Z,31.01
2022-09-01T13:11:08.223Z,29.97
2022-09-01T13:13:35.958Z,29.56
2022-09-01T13:16:13.009Z,29.37
2022-09-01T13:21:29.101Z,28.65
2022-09-01T13:23:56.378Z,28.74
2022-09-01T13:26:24.152Z,29.54
2022-09-01T13:28:51.756Z,29.84
2022-09-01T13:31:34.465Z,30.94
2022-09-01T13:34:11.018Z,31.24
2022-09-01T13:36:52.015Z,31.78
2022-09-01T13:39:20.276Z,31.33
2022-09-01T13:41:47.942Z,31.45
2022-09-01T13:44:15.581Z,31.00
2022-09-01T13:47:00.540Z,30.34
2022-09-01T13:52:14.546Z,28.55
2022-09-01T13:54:42.196Z,27.89
2022-09-01T13:57:08.867Z,26.76
2022-09-01T13:59:36.008Z,26.03
2022-09-01T14:02:02.927Z,25.30
2022-09-01T14:04:29.744Z,25.34
2022-09-01T14:06:57.125Z,25.67
2022-09-01T14:09:25.994Z,25.50
2022-09-01T14:11:54.354Z,25.50
2022-09-01T14:14:21.436Z,25.76
2022-09-01T14:16:48.953Z,25.87
2022-09-01T14:19:15.938Z,25.54
2022-09-01T14:21:42.958Z,25.11
2022-09-01T14:24:09.889Z,24.94
2022-09-01T14:26:36.746Z,24.21
2022-09-01T14:29:03.581Z,23.61
2022-09-01T14:31:30.654Z,23.66
2022-09-01T14:33:57.550Z,23.01
2022-09-01T14:36:26.394Z,22.10
2022-09-01T14:38:54.229Z,21.92
2022-09-01T14:41:24.101Z,21.93
2022-09-01T14:43:56.757Z,22.88
2022-09-01T14:46:25.696Z,23.50
2022-09-01T14:48:52.540Z,24.39
2022-09-01T14:51:25.529Z,24.77
2022-09-01T14:53:53.817Z,25.79
2022-09-01T14:56:21.721Z,26.45
2022-09-01T14:58:49.676Z,27.16
2022-09-01T15:01:33.608Z,28.12
2022-09-01T15:04:01.595Z,29.05
2022-09-01T15:06:28.384Z,29.96
2022-09-01T15:08:55.323Z,30.73
2022-09-01T15:11:22.348Z,31.65
2022-09-01T15:13:52.319Z,33.08
2022-09-01T15:16:22.382Z,33.57
2022-09-01T15:18:49.731Z,34.12
2022-09-01T15:21:28.673Z,34.06
2022-09-01T15:23:55.615Z,33.33
2022-09-01T15:26:22.765Z,32.96
2022-09-01T15:28:50.655Z,33.38
2022-09-01T15:31:19.922Z,33.77
2022-09-01T15:34:01.439Z,34.15
2022-09-01T15:36:30.126Z,34.03
2022-09-01T15:38:58.088Z,34.08
2022-09-01T15:41:30.613Z,33.98
2022-09-01T15:43:58.561Z,33.86
2022-09-01T15:46:32.864Z,33.59
2022-09-01T15:49:01.538Z,32.43
2022-09-01T15:51:33.103Z,31.37
2022-09-01T15:54:05.122Z,30.74
2022-09-01T15:56:32.408Z,30.11
2022-09-01T15:59:01.644Z,29.37
2022-09-01T16:01:31.527Z,29.19
2022-09-01T16:03:58.336Z,29.60
2022-09-01T16:06:26.499Z,30.00
2022-09-01T16:08:54.592Z,30.55
2022-09-01T16:11:23.566Z,31.33
2022-09-01T16:13:54.028Z,32.20
2022-09-01T16:16:52.121Z,33.58
2022-09-01T16:19:37.425Z,34.65
2022-09-01T16:22:30.145Z,35.79
2022-09-01T16:25:07.367Z,36.77
2022-09-01T16:27:40.135Z,37.69
2022-09-01T16:30:14.472Z,38.73
2022-09-01T16:32:45.349Z,39.47
2022-09-01T16:35:13.919Z,40.00
2022-09-01T16:38:06.604Z,40.80
2022-09-01T16:40:50.539Z,41.33
2022-09-01T16:43:31.419Z,41.57
2022-09-01T16:46:30.466Z,42.12
2022-09-01T16:49:35.943Z,42.71
2022-09-01T16:52:05.838Z,43.10
2022-09-01T16:55:13.357Z,43.45
2022-09-01T16:57:54.136Z,43.94
2022-09-01T17:00:30.953Z,44.09
2022-09-01T17:03:18.314Z,44.44
2022-09-01T17:05:56.620Z,44.53
2022-09-01T17:08:31.763Z,44.84
2022-09-01T17:11:11.438Z,44.98
2022-09-01T17:13:41.626Z,45.02
2022-09-01T17:16:42.632Z,45.69
2022-09-01T17:19:15.904Z,45.63
2022-09-01T17:22:05.643Z,46.00
2022-09-01T17:24:43.029Z,46.33
2022-09-01T17:27:24.992Z,46.56
2022-09-01T17:29:54.106Z,46.78
2022-09-01T17:33:18.544Z,47.04
2022-09-01T17:36:24.248Z,47.35
2022-09-01T17:39:03.613Z,47.48
2022-09-01T17:41:42.322Z,47.80
2022-09-01T17:44:51.589Z,48.01
2022-09-01T17:47:52.479Z,48.00
2022-09-01T17:50:24.024Z,48.07
2022-09-01T17:53:12.651Z,48.53
2022-09-01T17:55:50.349Z,48.59
2022-09-01T17:58:38.234Z,48.54
2022-09-01T18:01:37.711Z,48.50
2022-09-01T18:04:29.348Z,48.61
2022-09-01T18:07:06.537Z,48.43
2022-09-01T18:09:49.263Z,48.52
2022-09-01T18:12:24.555Z,48.33
2022-09-01T18:15:09.187Z,48.67
2022-09-01T18:17:46.445Z,48.68
2022-09-01T18:20:25.536Z,48.84
2022-09-01T18:23:22.045Z,48.73
2022-09-01T18:25:57.932Z,48.56
2022-09-01T18:28:24.844Z,48.45
2022-09-01T18:31:06.725Z,48.83
2022-09-01T18:33:45.940Z,48.73
2022-09-01T18:36:33.170Z,48.73
2022-09-01T18:39:05.985Z,48.84
2022-09-01T18:41:43.592Z,49.10
2022-09-01T18:44:33.119Z,49.28
2022-09-01T18:47:11.654Z,49.27
2022-09-01T18:49:57.400Z,49.58
2022-09-01T18:52:50.459Z,49.51
2022-09-01T18:55:47.746Z,49.76
2022-09-01T18:58:22.735Z,49.81
2022-09-01T19:00:59.969Z,49.67
2022-09-01T19:03:38.835Z,49.94
2022-09-01T19:06:12.055Z,50.19
2022-09-01T19:08:52.103Z,50.19
2022-09-01T19:11:32.708Z,50.38
2022-09-01T19:14:19.317Z,50.86
2022-09-01T19:17:04.526Z,50.81
2022-09-01T19:19:33.712Z,51.14
2022-09-01T19:22:00.542Z,51.13
2022-09-01T19:24:38.523Z,51.07
2022-09-01T19:27:11.736Z,51.50
2022-09-01T19:29:53.824Z,51.58
2022-09-01T19:32:22.664Z,51.55
2022-09-01T19:35:06.735Z,51.93
2022-09-01T19:37:33.754Z,51.98
2022-09-01T19:40:01.576Z,52.04
2022-09-01T19:42:40.849Z,52.06
2022-09-01T19:45:19.506Z,52.64
2022-09-01T19:48:06.732Z,52.59
2022-09-01T19:50:50.957Z,52.83
2022-09-01T19:53:28.176Z,52.94
2022-09-01T19:56:13.498Z,53.09
2022-09-01T19:59:14.247Z,53.42
2022-09-01T20:01:47.857Z,53.31
2022-09-01T20:04:40.553Z,53.30
2022-09-01T20:07:18.445Z,53.74
2022-09-01T20:10:16.703Z,54.00
2022-09-01T20:13:01.916Z,54.09
2022-09-01T20:15:40.542Z,54.07
2022-09-01T20:18:16.772Z,54.21
2022-09-01T20:20:48.720Z,53.90
2022-09-01T20:23:21.477Z,54.13
2022-09-01T20:26:01.447Z,54.25
2022-09-01T20:28:45.690Z,54.63
2022-09-01T20:31:25.136Z,54.34
2022-09-01T20:33:55.171Z,54.71
2022-09-01T20:36:43.643Z,54.62
2022-09-01T20:39:47.920Z,54.79
2022-09-01T20:42:31.488Z,54.75
2022-09-01T20:45:10.458Z,54.41
2022-09-01T20:47:37.361Z,54.63
2022-09-01T20:50:11.673Z,54.28
2022-09-01T20:53:06.269Z,54.20
2022-09-01T20:55:41.820Z,54.12
2022-09-01T20:58:14.510Z,54.38
2022-09-01T21:01:36.876Z,54.63
2022-09-01T21:04:22.462Z,54.64
2022-09-01T21:07:05.295Z,54.48
2022-09-01T21:10:09.815Z,54.79
2022-09-01T21:12:44.273Z,54.91
2022-09-01T21:15:17.044Z,54.91
2022-09-01T21:17:55.742Z,55.16
2022-09-01T21:20:35.387Z,55.30
2022-09-01T21:23:03.808Z,55.22
2022-09-01T21:25:33.910Z,55.82
2022-09-01T21:28:04.653Z,55.88
2022-09-01T21:30:34.927Z,55.69
2022-09-01T21:33:03.002Z,55.90
2022-09-01T21:35:29.962Z,56.35
2022-09-01T21:37:59.042Z,56.15
2022-09-01T21:40:26.706Z,56.52
2022-09-01T21:43:00.231Z,56.45
2022-09-01T21:45:27.482Z,56.22
2022-09-01T21:47:54.511Z,56.75
2022-09-01T21:50:24.221Z,56.58
2022-09-01T21:52:51.535Z,56.79
2022-09-01T21:55:22.664Z,56.87
2022-09-01T21:57:50.773Z,56.88
2022-09-01T22:00:21.174Z,56.60
2022-09-01T22:02:48.079Z,56.89
2022-09-01T22:05:15.400Z,57.14
2022-09-01T22:07:45.483Z,56.82
2022-09-01T22:10:18.419Z,57.25
2022-09-01T22:12:46.645Z,57.02
2022-09-01T22:15:16.973Z,57.12
2022-09-01T22:17:45.161Z,57.03
2022-09-01T22:20:14.531Z,57.15
2022-09-01T22:22:42.018Z,57.46
2022-09-01T22:25:11.987Z,57.40
2022-09-01T22:27:39.307Z,57.56
2022-09-01T22:30:08.209Z,57.54
2022-09-01T22:32:36.544Z,57.42
2022-09-01T22:35:09.370Z,57.70
2022-09-01T22:37:37.451Z,57.35
2022-09-01T22:40:06.083Z,57.46
2022-09-01T22:42:33.293Z,57.77
2022-09-01T22:45:00.256Z,57.85
2022-09-01T22:47:27.019Z,58.11
2022-09-01T22:49:56.568Z,58.05
2022-09-01T22:52:23.525Z,58.06
2022-09-01T22:54:51.769Z,58.35
2022-09-01T22:57:18.447Z,58.33
2022-09-01T22:59:45.558Z,58.36
2022-09-01T23:02:12.625Z,58.09
2022-09-01T23:04:40.546Z,58.26
2022-09-01T23:07:08.327Z,58.62
2022-09-01T23:09:35.855Z,58.71
2022-09-01T23:12:02.821Z,58.53
2022-09-01T23:14:29.749Z,58.75
2022-09-01T23:16:56.562Z,58.77
2022-09-01T23:19:24.048Z,58.88
2022-09-01T23:21:51.892Z,59.11
2022-09-01T23:24:19.954Z,59.34
2022-09-01T23:26:47.697Z,59.00
2022-09-01T23:29:14.802Z,59.26
2022-09-01T23:31:41.781Z,59.52
2022-09-01T23:34:09.204Z,59.41
2022-09-01T23:36:37.122Z,59.40
2022-09-01T23:39:05.328Z,59.68
2022-09-01T23:41:35.297Z,59.28
2022-09-01T23:44:06.087Z,59.76
2022-09-01T23:46:41.700Z,59.36
2022-09-01T23:49:09.809Z,59.78
2022-09-01T23:51:40.166Z,59.72
2022-09-01T23:54:07.864Z,59.55
2022-09-01T23:56:35.030Z,59.89
2022-09-01T23:59:02.404Z,59.86
